sensor_id;sensor_type;location;lat;lon;timestamp;pressure;altitude;pressure_sealevel;temperature;humidity
59170;BME280;52474;52.236;5.114;2023-02-19T00:01:13;101814.91;;;8.78;100.00
59170;BME280;52474;52.236;5.114;2023-02-19T00:03:40;101805.50;;;8.74;100.00
59170;BME280;52474;52.236;5.114;2023-02-19T00:06:08;101797.75;;;8.71;100.00
59170;BME280;52474;52.236;5.114;2023-02-19T00:08:36;101815.09;;;8.75;100.00
59170;BME280;52474;52.236;5.114;2023-02-19T00:11:07;101811.72;;;8.73;100.00
59170;BME280;52474;52.236;5.114;2023-02-19T00:13:41;101818.78;;;8.72;100.00
59170;BME280;52474;52.236;5.114;2023-02-19T00:16:09;101824.25;;;8.69;100.00
59170;BME280;52474;52.236;5.114;2023-02-19T00:18:36;101808.59;;;8.66;100.00
59170;BME280;52474;52.236;5.114;2023-02-19T00:21:02;101789.94;;;8.55;100.00
59170;BME280;52474;52.236;5.114;2023-02-19T00:23:29;101825.94;;;8.70;100.00
59170;BME280;52474;52.236;5.114;2023-02-19T00:25:54;101813.03;;;8.66;100.00
59170;BME280;52474;52.236;5.114;2023-02-19T00:28:20;101806.91;;;8.65;100.00
59170;BME280;52474;52.236;5.114;2023-02-19T00:30:47;101799.94;;;8.64;100.00
59170;BME280;52474;52.236;5.114;2023-02-19T00:33:12;101817.53;;;8.78;100.00
59170;BME280;52474;52.236;5.114;2023-02-19T00:35:38;101820.31;;;8.76;100.00
59170;BME280;52474;52.236;5.114;2023-02-19T00:38:04;101812.81;;;8.69;100.00
59170;BME280;52474;52.236;5.114;2023-02-19T00:40:30;101817.00;;;8.73;100.00
59170;BME280;52474;52.236;5.114;2023-02-19T00:42:55;101828.09;;;8.78;100.00
59170;BME280;52474;52.236;5.114;2023-02-19T00:45:21;101819.25;;;8.79;100.00
59170;BME280;52474;52.236;5.114;2023-02-19T00:47:47;101833.31;;;8.79;100.00
59170;BME280;52474;52.236;5.114;2023-02-19T00:50:13;101832.34;;;8.80;100.00
59170;BME280;52474;52.236;5.114;2023-02-19T00:52:39;101830.00;;;8.76;100.00
59170;BME280;52474;52.236;5.114;2023-02-19T00:55:05;101836.03;;;8.78;100.00
59170;BME280;52474;52.236;5.114;2023-02-19T00:57:30;101837.00;;;8.77;100.00
59170;BME280;52474;52.236;5.114;2023-02-19T00:59:56;101829.72;;;8.66;100.00
59170;BME280;52474;52.236;5.114;2023-02-19T01:02:22;101851.13;;;8.76;100.00
59170;BME280;52474;52.236;5.114;2023-02-19T01:04:48;101851.25;;;8.74;100.00
59170;BME280;52474;52.236;5.114;2023-02-19T01:07:14;101827.25;;;8.63;100.00
59170;BME280;52474;52.236;5.114;2023-02-19T01:09:40;101841.59;;;8.73;100.00
59170;BME280;52474;52.236;5.114;2023-02-19T01:12:05;101834.84;;;8.69;100.00
59170;BME280;52474;52.236;5.114;2023-02-19T01:14:32;101834.84;;;8.69;100.00
59170;BME280;52474;52.236;5.114;2023-02-19T01:16:58;101843.69;;;8.68;100.00
59170;BME280;52474;52.236;5.114;2023-02-19T01:19:23;101825.03;;;8.57;100.00
59170;BME280;52474;52.236;5.114;2023-02-19T01:21:49;101838.78;;;8.62;100.00
59170;BME280;52474;52.236;5.114;2023-02-19T01:24:15;101815.38;;;8.42;100.00
59170;BME280;52474;52.236;5.114;2023-02-19T01:26:41;101841.78;;;8.56;100.00
59170;BME280;52474;52.236;5.114;2023-02-19T01:29:08;101849.13;;;8.51;100.00
59170;BME280;52474;52.236;5.114;2023-02-19T01:31:34;101856.88;;;8.54;100.00
59170;BME280;52474;52.236;5.114;2023-02-19T01:34:02;101863.09;;;8.53;100.00
59170;BME280;52474;52.236;5.114;2023-02-19T01:36:31;101859.69;;;8.51;100.00
59170;BME280;52474;52.236;5.114;2023-02-19T01:38:59;101854.81;;;8.45;100.00
59170;BME280;52474;52.236;5.114;2023-02-19T01:41:25;101858.00;;;8.50;100.00
59170;BME280;52474;52.236;5.114;2023-02-19T01:46:41;101865.38;;;8.45;100.00
59170;BME280;52474;52.236;5.114;2023-02-19T01:49:20;101872.59;;;8.41;100.00
59170;BME280;52474;52.236;5.114;2023-02-19T01:51:53;101862.19;;;8.38;100.00
59170;BME280;52474;52.236;5.114;2023-02-19T01:54:21;101866.47;;;8.41;100.00
59170;BME280;52474;52.236;5.114;2023-02-19T01:56:50;101852.03;;;8.32;100.00
59170;BME280;52474;52.236;5.114;2023-02-19T01:59:17;101854.38;;;8.36;100.00
59170;BME280;52474;52.236;5.114;2023-02-19T02:01:43;101863.56;;;8.45;100.00
59170;BME280;52474;52.236;5.114;2023-02-19T02:04:11;101869.81;;;8.44;100.00
59170;BME280;52474;52.236;5.114;2023-02-19T02:06:48;101870.66;;;8.45;100.00
59170;BME280;52474;52.236;5.114;2023-02-19T02:09:16;101873.28;;;8.45;100.00
59170;BME280;52474;52.236;5.114;2023-02-19T02:12:02;101876.75;;;8.45;100.00
59170;BME280;52474;52.236;5.114;2023-02-19T02:14:30;101860.69;;;8.34;100.00
59170;BME280;52474;52.236;5.114;2023-02-19T02:31:42;101878.66;;;8.43;100.00
59170;BME280;52474;52.236;5.114;2023-02-19T02:34:35;101884.59;;;8.47;100.00
59170;BME280;52474;52.236;5.114;2023-02-19T02:37:04;101873.72;;;8.37;100.00
59170;BME280;52474;52.236;5.114;2023-02-19T02:39:30;101874.41;;;8.41;100.00
59170;BME280;52474;52.236;5.114;2023-02-19T02:41:58;101880.38;;;8.44;100.00
59170;BME280;52474;52.236;5.114;2023-02-19T02:44:52;101880.16;;;8.47;100.00
59170;BME280;52474;52.236;5.114;2023-02-19T02:47:53;101891.66;;;8.46;100.00
59170;BME280;52474;52.236;5.114;2023-02-19T02:50:25;101883.66;;;8.48;100.00
59170;BME280;52474;52.236;5.114;2023-02-19T02:53:27;101881.78;;;8.50;100.00
59170;BME280;52474;52.236;5.114;2023-02-19T02:56:14;101852.09;;;8.30;100.00
59170;BME280;52474;52.236;5.114;2023-02-19T02:58:43;101890.47;;;8.52;100.00
59170;BME280;52474;52.236;5.114;2023-02-19T03:01:20;101882.81;;;8.47;100.00
59170;BME280;52474;52.236;5.114;2023-02-19T03:04:11;101901.28;;;8.47;100.00
59170;BME280;52474;52.236;5.114;2023-02-19T03:06:39;101883.84;;;8.45;100.00
59170;BME280;52474;52.236;5.114;2023-02-19T03:09:17;101904.00;;;8.46;100.00
59170;BME280;52474;52.236;5.114;2023-02-19T03:11:48;101903.25;;;8.44;100.00
59170;BME280;52474;52.236;5.114;2023-02-19T03:14:45;101888.56;;;8.40;100.00
59170;BME280;52474;52.236;5.114;2023-02-19T03:17:38;101872.53;;;8.27;100.00
59170;BME280;52474;52.236;5.114;2023-02-19T03:20:26;101913.53;;;8.48;100.00
59170;BME280;52474;52.236;5.114;2023-02-19T03:22:55;101908.38;;;8.47;100.00
59170;BME280;52474;52.236;5.114;2023-02-19T03:25:27;101893.03;;;8.37;100.00
59170;BME280;52474;52.236;5.114;2023-02-19T03:28:22;101917.97;;;8.48;100.00
59170;BME280;52474;52.236;5.114;2023-02-19T03:31:18;101927.78;;;8.46;100.00
59170;BME280;52474;52.236;5.114;2023-02-19T03:33:48;101908.88;;;8.37;100.00
59170;BME280;52474;52.236;5.114;2023-02-19T03:36:16;101918.25;;;8.43;100.00
59170;BME280;52474;52.236;5.114;2023-02-19T03:38:53;101916.63;;;8.41;100.00
59170;BME280;52474;52.236;5.114;2023-02-19T03:41:42;101894.59;;;8.26;100.00
59170;BME280;52474;52.236;5.114;2023-02-19T03:52:21;101876.34;;;8.07;100.00
59170;BME280;52474;52.236;5.114;2023-02-19T03:54:53;101941.66;;;8.33;100.00
59170;BME280;52474;52.236;5.114;2023-02-19T03:57:44;101944.28;;;8.33;100.00
59170;BME280;52474;52.236;5.114;2023-02-19T04:00:17;101941.06;;;8.28;100.00
59170;BME280;52474;52.236;5.114;2023-02-19T04:02:49;101953.06;;;8.34;100.00
59170;BME280;52474;52.236;5.114;2023-02-19T04:05:21;101938.63;;;8.25;100.00
59170;BME280;52474;52.236;5.114;2023-02-19T04:07:51;101958.34;;;8.34;100.00
59170;BME280;52474;52.236;5.114;2023-02-19T04:10:22;101935.13;;;8.25;100.00
59170;BME280;52474;52.236;5.114;2023-02-19T04:12:58;101953.25;;;8.31;100.00
59170;BME280;52474;52.236;5.114;2023-02-19T04:15:31;101950.69;;;8.29;100.00
59170;BME280;52474;52.236;5.114;2023-02-19T04:18:08;101976.81;;;8.34;100.00
59170;BME280;52474;52.236;5.114;2023-02-19T04:20:39;101937.72;;;8.10;100.00
59170;BME280;52474;52.236;5.114;2023-02-19T04:23:06;101980.47;;;8.31;100.00
59170;BME280;52474;52.236;5.114;2023-02-19T04:25:34;101966.50;;;8.29;100.00
59170;BME280;52474;52.236;5.114;2023-02-19T04:28:01;101967.84;;;8.22;100.00
59170;BME280;52474;52.236;5.114;2023-02-19T04:30:27;101983.22;;;8.30;100.00
59170;BME280;52474;52.236;5.114;2023-02-19T04:32:52;101983.13;;;8.31;100.00
59170;BME280;52474;52.236;5.114;2023-02-19T04:35:18;101981.69;;;8.26;100.00
59170;BME280;52474;52.236;5.114;2023-02-19T04:37:44;101991.03;;;8.31;100.00
59170;BME280;52474;52.236;5.114;2023-02-19T04:40:10;101994.44;;;8.33;100.00
59170;BME280;52474;52.236;5.114;2023-02-19T04:42:36;102005.69;;;8.37;100.00
59170;BME280;52474;52.236;5.114;2023-02-19T04:45:02;101988.75;;;8.25;100.00
59170;BME280;52474;52.236;5.114;2023-02-19T04:47:28;102008.47;;;8.34;100.00
59170;BME280;52474;52.236;5.114;2023-02-19T04:49:53;102015.31;;;8.38;100.00
59170;BME280;52474;52.236;5.114;2023-02-19T04:52:19;102023.28;;;8.36;100.00
59170;BME280;52474;52.236;5.114;2023-02-19T04:54:44;101980.00;;;8.09;100.00
59170;BME280;52474;52.236;5.114;2023-02-19T04:57:10;102025.84;;;8.38;100.00
59170;BME280;52474;52.236;5.114;2023-02-19T04:59:36;102032.16;;;8.35;100.00
59170;BME280;52474;52.236;5.114;2023-02-19T05:02:01;102016.00;;;8.26;100.00
59170;BME280;52474;52.236;5.114;2023-02-19T05:04:27;102031.41;;;8.33;100.00
59170;BME280;52474;52.236;5.114;2023-02-19T05:06:52;102035.25;;;8.28;100.00
59170;BME280;52474;52.236;5.114;2023-02-19T05:09:18;102029.97;;;8.28;100.00
59170;BME280;52474;52.236;5.114;2023-02-19T05:11:44;102043.06;;;8.29;100.00
59170;BME280;52474;52.236;5.114;2023-02-19T05:14:09;102041.56;;;8.25;100.00
59170;BME280;52474;52.236;5.114;2023-02-19T05:16:35;102039.94;;;8.23;100.00
59170;BME280;52474;52.236;5.114;2023-02-19T05:19:01;102038.56;;;8.15;100.00
59170;BME280;52474;52.236;5.114;2023-02-19T05:21:26;102047.09;;;8.21;100.00
59170;BME280;52474;52.236;5.114;2023-02-19T05:23:52;102057.56;;;8.22;100.00
59170;BME280;52474;52.236;5.114;2023-02-19T05:26:21;102054.03;;;8.22;100.00
59170;BME280;52474;52.236;5.114;2023-02-19T05:28:50;102036.50;;;8.05;100.00
59170;BME280;52474;52.236;5.114;2023-02-19T05:31:16;102049.19;;;8.14;100.00
59170;BME280;52474;52.236;5.114;2023-02-19T05:33:42;102061.13;;;8.21;100.00
59170;BME280;52474;52.236;5.114;2023-02-19T05:36:12;102051.06;;;8.12;100.00
59170;BME280;52474;52.236;5.114;2023-02-19T05:38:38;102065.56;;;8.21;100.00
59170;BME280;52474;52.236;5.114;2023-02-19T05:41:16;102055.94;;;8.20;100.00
59170;BME280;52474;52.236;5.114;2023-02-19T05:43:42;102055.00;;;8.21;100.00
59170;BME280;52474;52.236;5.114;2023-02-19T05:46:10;102023.00;;;7.95;100.00
59170;BME280;52474;52.236;5.114;2023-02-19T05:48:36;102060.28;;;8.21;100.00
59170;BME280;52474;52.236;5.114;2023-02-19T05:51:03;102067.34;;;8.20;100.00
59170;BME280;52474;52.236;5.114;2023-02-19T05:53:29;102060.28;;;8.21;100.00
59170;BME280;52474;52.236;5.114;2023-02-19T05:55:55;102060.53;;;8.16;100.00
59170;BME280;52474;52.236;5.114;2023-02-19T05:58:21;102071.84;;;8.18;100.00
59170;BME280;52474;52.236;5.114;2023-02-19T06:00:47;102062.91;;;8.05;100.00
59170;BME280;52474;52.236;5.114;2023-02-19T06:03:12;102086.38;;;8.09;100.00
59170;BME280;52474;52.236;5.114;2023-02-19T06:05:38;102082.38;;;8.02;100.00
59170;BME280;52474;52.236;5.114;2023-02-19T06:08:03;102069.63;;;7.94;100.00
59170;BME280;52474;52.236;5.114;2023-02-19T06:10:29;102085.03;;;8.02;100.00
59170;BME280;52474;52.236;5.114;2023-02-19T06:12:55;102099.16;;;8.01;100.00
59170;BME280;52474;52.236;5.114;2023-02-19T06:15:21;102105.38;;;8.00;100.00
59170;BME280;52474;52.236;5.114;2023-02-19T06:17:47;102103.78;;;7.98;100.00
59170;BME280;52474;52.236;5.114;2023-02-19T06:20:13;102109.13;;;7.96;100.00
59170;BME280;52474;52.236;5.114;2023-02-19T06:22:39;102096.41;;;7.87;100.00
59170;BME280;52474;52.236;5.114;2023-02-19T06:25:05;102118.06;;;7.93;100.00
59170;BME280;52474;52.236;5.114;2023-02-19T06:27:32;102116.25;;;7.94;100.00
59170;BME280;52474;52.236;5.114;2023-02-19T06:29:58;102108.09;;;7.83;100.00
59170;BME280;52474;52.236;5.114;2023-02-19T06:32:24;102122.72;;;7.88;100.00
59170;BME280;52474;52.236;5.114;2023-02-19T06:34:49;102112.66;;;7.79;100.00
59170;BME280;52474;52.236;5.114;2023-02-19T06:37:15;102126.97;;;7.91;100.00
59170;BME280;52474;52.236;5.114;2023-02-19T06:39:41;102128.78;;;7.90;100.00
59170;BME280;52474;52.236;5.114;2023-02-19T06:42:08;102116.00;;;7.83;100.00
59170;BME280;52474;52.236;5.114;2023-02-19T06:44:34;102128.59;;;7.93;100.00
59170;BME280;52474;52.236;5.114;2023-02-19T06:46:59;102131.41;;;7.90;100.00
59170;BME280;52474;52.236;5.114;2023-02-19T06:49:25;102147.06;;;7.93;100.00
59170;BME280;52474;52.236;5.114;2023-02-19T06:51:51;102139.31;;;7.90;100.00
59170;BME280;52474;52.236;5.114;2023-02-19T06:54:17;102150.53;;;7.94;100.00
59170;BME280;52474;52.236;5.114;2023-02-19T06:56:42;102150.63;;;7.92;100.00
59170;BME280;52474;52.236;5.114;2023-02-19T06:59:14;102154.38;;;7.88;100.00
59170;BME280;52474;52.236;5.114;2023-02-19T07:01:43;102161.44;;;7.88;100.00
59170;BME280;52474;52.236;5.114;2023-02-19T07:04:10;102163.97;;;7.89;100.00
59170;BME280;52474;52.236;5.114;2023-02-19T07:06:36;102161.75;;;7.82;100.00
59170;BME280;52474;52.236;5.114;2023-02-19T07:09:04;102180.59;;;7.91;100.00
59170;BME280;52474;52.236;5.114;2023-02-19T07:11:32;102162.75;;;7.79;100.00
59170;BME280;52474;52.236;5.114;2023-02-19T07:14:00;102184.00;;;7.93;100.00
59170;BME280;52474;52.236;5.114;2023-02-19T07:16:26;102191.97;;;7.92;100.00
59170;BME280;52474;52.236;5.114;2023-02-19T07:18:55;102193.78;;;7.91;100.00
59170;BME280;52474;52.236;5.114;2023-02-19T07:21:21;102199.75;;;7.95;100.00
59170;BME280;52474;52.236;5.114;2023-02-19T07:23:47;102204.25;;;7.93;100.00
59170;BME280;52474;52.236;5.114;2023-02-19T07:26:15;102180.91;;;7.85;100.00
59170;BME280;52474;52.236;5.114;2023-02-19T07:28:45;102208.59;;;7.94;100.00
59170;BME280;52474;52.236;5.114;2023-02-19T07:31:13;102208.41;;;7.97;100.00
59170;BME280;52474;52.236;5.114;2023-02-19T07:33:45;102218.06;;;7.98;100.00
59170;BME280;52474;52.236;5.114;2023-02-19T07:36:12;102188.06;;;7.83;100.00
59170;BME280;52474;52.236;5.114;2023-02-19T07:38:38;102212.78;;;7.98;100.00
59170;BME280;52474;52.236;5.114;2023-02-19T07:41:05;102222.38;;;7.99;100.00
59170;BME280;52474;52.236;5.114;2023-02-19T07:43:33;102226.66;;;8.02;100.00
59170;BME280;52474;52.236;5.114;2023-02-19T07:46:04;102204.31;;;7.91;100.00
59170;BME280;52474;52.236;5.114;2023-02-19T07:48:29;102226.47;;;8.05;100.00
59170;BME280;52474;52.236;5.114;2023-02-19T07:50:57;102219.75;;;7.99;100.00
59170;BME280;52474;52.236;5.114;2023-02-19T07:53:25;102240.63;;;8.04;100.00
59170;BME280;52474;52.236;5.114;2023-02-19T07:55:51;102224.66;;;7.89;100.00
59170;BME280;52474;52.236;5.114;2023-02-19T07:58:17;102245.50;;;7.94;100.00
59170;BME280;52474;52.236;5.114;2023-02-19T08:00:43;102238.84;;;7.87;100.00
59170;BME280;52474;52.236;5.114;2023-02-19T08:03:09;102253.66;;;7.89;100.00
59170;BME280;52474;52.236;5.114;2023-02-19T08:05:40;102250.84;;;7.92;100.00
59170;BME280;52474;52.236;5.114;2023-02-19T08:08:08;102239.78;;;7.86;100.00
59170;BME280;52474;52.236;5.114;2023-02-19T08:10:34;102262.97;;;7.96;100.00
59170;BME280;52474;52.236;5.114;2023-02-19T08:13:19;102252.50;;;7.95;100.00
59170;BME280;52474;52.236;5.114;2023-02-19T08:15:53;102276.53;;;8.06;100.00
59170;BME280;52474;52.236;5.114;2023-02-19T08:18:22;102264.59;;;7.99;100.00
59170;BME280;52474;52.236;5.114;2023-02-19T08:20:48;102276.38;;;8.09;100.00
59170;BME280;52474;52.236;5.114;2023-02-19T08:23:14;102285.31;;;8.07;100.00
59170;BME280;52474;52.236;5.114;2023-02-19T08:25:43;102282.75;;;8.05;100.00
59170;BME280;52474;52.236;5.114;2023-02-19T08:28:09;102289.44;;;8.12;100.00
59170;BME280;52474;52.236;5.114;2023-02-19T08:30:37;102266.38;;;7.99;100.00
59170;BME280;52474;52.236;5.114;2023-02-19T08:33:04;102288.69;;;8.26;100.00
59170;BME280;52474;52.236;5.114;2023-02-19T08:35:33;102308.72;;;8.30;100.00
59170;BME280;52474;52.236;5.114;2023-02-19T08:38:00;102310.75;;;8.25;100.00
59170;BME280;52474;52.236;5.114;2023-02-19T08:40:26;102317.25;;;8.35;100.00
59170;BME280;52474;52.236;5.114;2023-02-19T08:42:52;102305.00;;;8.34;100.00
59170;BME280;52474;52.236;5.114;2023-02-19T08:45:18;102308.09;;;8.43;100.00
59170;BME280;52474;52.236;5.114;2023-02-19T08:47:46;102291.94;;;8.31;100.00
59170;BME280;52474;52.236;5.114;2023-02-19T08:50:12;102309.41;;;8.34;100.00
59170;BME280;52474;52.236;5.114;2023-02-19T08:52:38;102301.22;;;8.40;100.00
59170;BME280;52474;52.236;5.114;2023-02-19T08:55:04;102306.84;;;8.50;100.00
59170;BME280;52474;52.236;5.114;2023-02-19T08:57:30;102305.28;;;8.46;100.00
59170;BME280;52474;52.236;5.114;2023-02-19T08:59:56;102300.13;;;8.44;100.00
59170;BME280;52474;52.236;5.114;2023-02-19T09:02:23;102289.94;;;8.70;100.00
59170;BME280;52474;52.236;5.114;2023-02-19T09:04:49;102310.16;;;8.87;100.00
59170;BME280;52474;52.236;5.114;2023-02-19T09:07:15;102288.97;;;8.71;100.00
59170;BME280;52474;52.236;5.114;2023-02-19T09:09:41;102297.38;;;8.79;100.00
59170;BME280;52474;52.236;5.114;2023-02-19T09:12:09;102325.75;;;8.91;100.00
59170;BME280;52474;52.236;5.114;2023-02-19T09:14:36;102327.09;;;8.82;100.00
59170;BME280;52474;52.236;5.114;2023-02-19T09:17:03;102308.78;;;9.43;100.00
59170;BME280;52474;52.236;5.114;2023-02-19T09:19:29;102320.88;;;9.31;100.00
59170;BME280;52474;52.236;5.114;2023-02-19T09:21:55;102306.97;;;9.28;100.00
59170;BME280;52474;52.236;5.114;2023-02-19T09:24:21;102329.31;;;9.22;100.00
59170;BME280;52474;52.236;5.114;2023-02-19T09:26:51;102333.03;;;8.70;100.00
59170;BME280;52474;52.236;5.114;2023-02-19T09:29:17;102366.09;;;8.62;100.00
59170;BME280;52474;52.236;5.114;2023-02-19T09:31:43;102371.84;;;8.52;100.00
59170;BME280;52474;52.236;5.114;2023-02-19T09:34:09;102382.47;;;8.51;100.00
59170;BME280;52474;52.236;5.114;2023-02-19T09:36:37;102377.13;;;8.52;100.00
59170;BME280;52474;52.236;5.114;2023-02-19T09:39:04;102393.25;;;8.64;100.00
59170;BME280;52474;52.236;5.114;2023-02-19T09:41:35;102399.41;;;8.64;100.00
59170;BME280;52474;52.236;5.114;2023-02-19T09:44:02;102390.38;;;8.68;100.00
59170;BME280;52474;52.236;5.114;2023-02-19T09:46:41;102396.25;;;8.73;100.00
59170;BME280;52474;52.236;5.114;2023-02-19T09:49:14;102392.66;;;8.41;100.00
59170;BME280;52474;52.236;5.114;2023-02-19T09:51:48;102418.56;;;8.15;100.00
59170;BME280;52474;52.236;5.114;2023-02-19T09:54:26;102403.78;;;7.77;100.00
59170;BME280;52474;52.236;5.114;2023-02-19T09:56:54;102428.84;;;7.85;100.00
59170;BME280;52474;52.236;5.114;2023-02-19T09:59:24;102434.75;;;7.90;100.00
59170;BME280;52474;52.236;5.114;2023-02-19T10:02:03;102424.63;;;8.00;100.00
59170;BME280;52474;52.236;5.114;2023-02-19T10:04:32;102425.78;;;8.29;100.00
59170;BME280;52474;52.236;5.114;2023-02-19T10:06:58;102443.28;;;8.32;100.00
59170;BME280;52474;52.236;5.114;2023-02-19T10:09:28;102450.31;;;8.14;100.00
59170;BME280;52474;52.236;5.114;2023-02-19T10:11:54;102453.06;;;7.93;100.00
59170;BME280;52474;52.236;5.114;2023-02-19T10:14:36;102465.00;;;7.83;100.00
59170;BME280;52474;52.236;5.114;2023-02-19T10:17:05;102465.50;;;7.72;100.00
59170;BME280;52474;52.236;5.114;2023-02-19T10:19:32;102480.63;;;7.69;100.00
59170;BME280;52474;52.236;5.114;2023-02-19T10:22:01;102480.41;;;7.55;100.00
59170;BME280;52474;52.236;5.114;2023-02-19T10:24:28;102484.97;;;7.51;100.00
59170;BME280;52474;52.236;5.114;2023-02-19T10:27:00;102483.53;;;7.44;100.00
59170;BME280;52474;52.236;5.114;2023-02-19T10:29:27;102506.34;;;7.45;100.00
59170;BME280;52474;52.236;5.114;2023-02-19T10:32:19;102506.63;;;7.39;100.00
59170;BME280;52474;52.236;5.114;2023-02-19T10:35:10;102489.16;;;7.36;100.00
59170;BME280;52474;52.236;5.114;2023-02-19T10:37:48;102501.41;;;7.37;100.00
59170;BME280;52474;52.236;5.114;2023-02-19T10:40:26;102518.03;;;7.39;100.00
59170;BME280;52474;52.236;5.114;2023-02-19T10:42:56;102499.78;;;7.35;100.00
59170;BME280;52474;52.236;5.114;2023-02-19T10:45:31;102492.88;;;7.32;100.00
59170;BME280;52474;52.236;5.114;2023-02-19T10:47:58;102489.94;;;7.19;100.00
59170;BME280;52474;52.236;5.114;2023-02-19T10:50:29;102493.56;;;7.17;100.00
59170;BME280;52474;52.236;5.114;2023-02-19T10:52:57;102508.66;;;7.32;100.00
59170;BME280;52474;52.236;5.114;2023-02-19T10:57:53;102496.34;;;7.32;100.00
59170;BME280;52474;52.236;5.114;2023-02-19T11:00:28;102500.41;;;7.40;100.00
59170;BME280;52474;52.236;5.114;2023-02-19T11:03:13;102491.38;;;7.26;100.00
59170;BME280;52474;52.236;5.114;2023-02-19T11:05:50;102490.72;;;7.21;100.00
59170;BME280;52474;52.236;5.114;2023-02-19T11:08:21;102506.75;;;7.36;100.00
59170;BME280;52474;52.236;5.114;2023-02-19T11:10:50;102507.03;;;7.29;100.00
59170;BME280;52474;52.236;5.114;2023-02-19T11:13:25;102514.34;;;7.23;100.00
59170;BME280;52474;52.236;5.114;2023-02-19T11:16:12;102519.00;;;7.37;100.00
59170;BME280;52474;52.236;5.114;2023-02-19T11:18:38;102505.31;;;7.28;100.00
59170;BME280;52474;52.236;5.114;2023-02-19T11:21:21;102518.81;;;7.41;100.00
59170;BME280;52474;52.236;5.114;2023-02-19T11:23:49;102500.47;;;7.19;100.00
59170;BME280;52474;52.236;5.114;2023-02-19T11:26:20;102525.34;;;7.32;100.00
59170;BME280;52474;52.236;5.114;2023-02-19T11:28:55;102518.81;;;7.21;100.00
59170;BME280;52474;52.236;5.114;2023-02-19T11:31:27;102522.41;;;7.20;100.00
59170;BME280;52474;52.236;5.114;2023-02-19T11:34:02;102534.63;;;7.21;100.00
59170;BME280;52474;52.236;5.114;2023-02-19T11:36:36;102520.41;;;7.25;100.00
59170;BME280;52474;52.236;5.114;2023-02-19T11:42:14;102536.91;;;7.49;100.00
59170;BME280;52474;52.236;5.114;2023-02-19T11:45:15;102532.50;;;7.68;100.00
59170;BME280;52474;52.236;5.114;2023-02-19T11:53:26;102514.84;;;8.26;100.00
59170;BME280;52474;52.236;5.114;2023-02-19T11:56:20;102519.09;;;8.47;100.00
59170;BME280;52474;52.236;5.114;2023-02-19T11:59:03;102517.47;;;8.26;100.00
59170;BME280;52474;52.236;5.114;2023-02-19T12:07:50;102526.56;;;8.01;100.00
59170;BME280;52474;52.236;5.114;2023-02-19T12:10:31;102522.66;;;7.91;100.00
59170;BME280;52474;52.236;5.114;2023-02-19T12:13:24;102528.09;;;7.88;100.00
59170;BME280;52474;52.236;5.114;2023-02-19T12:16:02;102543.13;;;7.67;100.00
59170;BME280;52474;52.236;5.114;2023-02-19T12:19:06;102541.69;;;7.79;100.00
59170;BME280;52474;52.236;5.114;2023-02-19T12:30:16;102533.53;;;8.02;100.00
59170;BME280;52474;52.236;5.114;2023-02-19T12:39:34;102541.38;;;8.23;100.00
59170;BME280;52474;52.236;5.114;2023-02-19T12:45:28;102553.00;;;8.18;100.00
59170;BME280;52474;52.236;5.114;2023-02-19T12:50:54;102566.69;;;8.27;100.00
59170;BME280;52474;52.236;5.114;2023-02-19T12:53:41;102571.00;;;8.10;100.00
59170;BME280;52474;52.236;5.114;2023-02-19T12:56:12;102573.00;;;8.05;100.00
59170;BME280;52474;52.236;5.114;2023-02-19T12:58:53;102554.56;;;8.23;100.00
59170;BME280;52474;52.236;5.114;2023-02-19T13:01:25;102569.63;;;8.21;100.00
59170;BME280;52474;52.236;5.114;2023-02-19T13:06:57;102601.81;;;7.91;100.00
59170;BME280;52474;52.236;5.114;2023-02-19T13:09:36;102598.34;;;7.70;100.00
59170;BME280;52474;52.236;5.114;2023-02-19T13:12:11;102604.41;;;7.72;100.00
59170;BME280;52474;52.236;5.114;2023-02-19T13:14:45;102613.06;;;7.76;100.00
59170;BME280;52474;52.236;5.114;2023-02-19T13:17:22;102612.63;;;7.66;100.00
59170;BME280;52474;52.236;5.114;2023-02-19T13:19:55;102612.03;;;7.59;100.00
59170;BME280;52474;52.236;5.114;2023-02-19T13:22:52;102609.00;;;7.68;100.00
59170;BME280;52474;52.236;5.114;2023-02-19T13:28:33;102609.19;;;7.64;100.00
59170;BME280;52474;52.236;5.114;2023-02-19T13:31:19;102608.63;;;7.76;100.00
59170;BME280;52474;52.236;5.114;2023-02-19T13:36:38;102618.19;;;7.79;100.00
59170;BME280;52474;52.236;5.114;2023-02-19T13:39:15;102620.44;;;7.67;100.00
59170;BME280;52474;52.236;5.114;2023-02-19T13:41:51;102631.13;;;7.64;100.00
59170;BME280;52474;52.236;5.114;2023-02-19T13:44:28;102610.59;;;7.52;100.00
59170;BME280;52474;52.236;5.114;2023-02-19T13:46:55;102620.88;;;7.58;100.00
59170;BME280;52474;52.236;5.114;2023-02-19T13:51:49;102648.09;;;7.59;100.00
59170;BME280;52474;52.236;5.114;2023-02-19T13:54:31;102649.41;;;7.48;100.00
59170;BME280;52474;52.236;5.114;2023-02-19T13:59:43;102652.13;;;7.47;100.00
59170;BME280;52474;52.236;5.114;2023-02-19T14:02:31;102633.16;;;7.39;100.00
59170;BME280;52474;52.236;5.114;2023-02-19T14:05:08;102628.06;;;7.34;100.00
59170;BME280;52474;52.236;5.114;2023-02-19T14:07:51;102637.94;;;7.29;100.00
59170;BME280;52474;52.236;5.114;2023-02-19T14:10:51;102646.38;;;7.17;100.00
59170;BME280;52474;52.236;5.114;2023-02-19T14:16:28;102648.75;;;7.43;100.00
59170;BME280;52474;52.236;5.114;2023-02-19T14:18:54;102645.19;;;7.24;100.00
59170;BME280;52474;52.236;5.114;2023-02-19T14:21:25;102631.03;;;7.26;100.00
59170;BME280;52474;52.236;5.114;2023-02-19T14:23:58;102631.22;;;7.22;100.00
59170;BME280;52474;52.236;5.114;2023-02-19T14:26:25;102601.59;;;7.17;100.00
59170;BME280;52474;52.236;5.114;2023-02-19T14:28:52;102623.44;;;7.39;100.00
59170;BME280;52474;52.236;5.114;2023-02-19T14:34:05;102625.03;;;7.43;100.00